Time;durP1;ratioP1;P1;durP2;ratioP2;P2;SDS_P1;SDS_P2;PMS_P1;PMS_P2;Temp;Humidity;BMP_temperature;BMP_pressure;BME280_temperature;BME280_humidity;BME280_pressure;Samples;Min_cycle;Max_cycle;Signal;HPM_P1;HPM_P2
2022/02/25 00:01:20;;;;;;;;;;;;;;;28.16;22.16;101099.63;5073822;28;866;-37
2022/02/25 00:03:45;;;;;;;;;;;;;;;27.73;22.55;101102.81;5075781;28;822;-37
2022/02/25 00:06:11;;;;;;;;;;;;;;;27.71;22.80;101097.59;5074420;28;1973;-36
2022/02/25 00:08:36;;;;;;;;;;;;;;;28.18;22.01;101092.19;5075951;28;842;-36
2022/02/25 00:11:01;;;;;;;;;;;;;;;28.40;21.97;101099.63;5075529;28;826;-37
2022/02/25 00:13:27;;;;;;;;;;;;;;;28.48;21.98;101104.97;5075420;28;845;-38
2022/02/25 00:15:57;;;;;;;;;;;;;;;27.90;22.48;101098.16;5074157;28;806;-35
2022/02/25 00:18:23;;;;;;;;;;;;;;;27.50;23.13;101098.19;5075671;28;769;-37
2022/02/25 00:20:48;;;;;;;;;;;;;;;27.41;23.16;101093.88;5075466;28;864;-37
2022/02/25 00:23:13;;;;;;;;;;;;;;;27.54;22.87;101102.25;5074260;28;829;-37
2022/02/25 00:25:41;;;;;;;;;;;;;;;27.92;22.81;101092.56;5075534;28;1898;-36
2022/02/25 00:28:06;;;;;;;;;;;;;;;28.40;22.06;101078.84;5075240;28;849;-37
2022/02/25 00:30:32;;;;;;;;;;;;;;;28.34;22.24;101076.88;5078161;28;1510;-37
2022/02/25 00:32:57;;;;;;;;;;;;;;;28.59;21.74;101082.06;5076044;28;1176;-37
2022/02/25 00:35:22;;;;;;;;;;;;;;;27.87;22.30;101077.75;5076093;28;831;-37
2022/02/25 00:37:48;;;;;;;;;;;;;;;27.42;23.12;101072.09;5075338;28;843;-36
2022/02/25 00:40:13;;;;;;;;;;;;;;;27.57;23.08;101074.00;5075562;28;861;-37
2022/02/25 00:42:38;;;;;;;;;;;;;;;28.09;22.29;101074.38;5075365;28;798;-37
2022/02/25 00:45:04;;;;;;;;;;;;;;;28.23;22.37;101068.16;5075132;28;1898;-36
2022/02/25 00:47:29;;;;;;;;;;;;;;;28.19;22.22;101068.69;5074105;28;1003;-37
2022/02/25 00:49:55;;;;;;;;;;;;;;;28.38;22.09;101075.47;5075283;28;808;-37
2022/02/25 00:52:20;;;;;;;;;;;;;;;27.83;22.78;101072.84;5075186;28;853;-36
2022/02/25 00:54:46;;;;;;;;;;;;;;;27.45;23.12;101078.97;5075392;28;880;-37
2022/02/25 00:57:11;;;;;;;;;;;;;;;27.87;22.79;101071.50;5075061;28;821;-35
2022/02/25 00:59:37;;;;;;;;;;;;;;;28.21;22.44;101072.88;5075362;28;887;-35
2022/02/25 01:02:02;;;;;;;;;;;;;;;28.03;22.36;101059.69;5066094;28;827;-36
2022/02/25 01:04:28;;;;;;;;;;;;;;;28.37;22.31;101065.69;5075221;28;1906;-35
2022/02/25 01:06:54;;;;;;;;;;;;;;;27.68;22.74;101067.34;5077130;28;770;-36
2022/02/25 01:09:19;;;;;;;;;;;;;;;27.39;23.23;101067.84;5078627;28;832;-37
2022/02/25 01:11:44;;;;;;;;;;;;;;;27.44;23.04;101070.06;5078511;28;881;-36
2022/02/25 01:14:10;;;;;;;;;;;;;;;27.46;22.83;101068.00;5078481;28;849;-37
2022/02/25 01:16:35;;;;;;;;;;;;;;;27.91;22.82;101069.28;5076962;28;875;-36
2022/02/25 01:19:00;;;;;;;;;;;;;;;28.30;22.10;101062.00;5077986;28;1427;-36
2022/02/25 01:21:26;;;;;;;;;;;;;;;28.12;22.58;101060.47;5076947;28;854;-37
2022/02/25 01:23:51;;;;;;;;;;;;;;;28.17;22.31;101058.06;5078202;28;745;-35
2022/02/25 01:26:16;;;;;;;;;;;;;;;27.84;22.67;101059.16;5078010;28;1906;-37
2022/02/25 01:28:42;;;;;;;;;;;;;;;27.51;22.92;101059.34;5078137;28;809;-36
2022/02/25 01:31:07;;;;;;;;;;;;;;;27.51;23.17;101057.50;5075602;28;919;-37
2022/02/25 01:33:32;;;;;;;;;;;;;;;28.39;22.18;101060.94;5077984;28;1284;-36
2022/02/25 01:36:00;;;;;;;;;;;;;;;28.28;22.37;101050.53;5078292;28;808;-37
2022/02/25 01:38:25;;;;;;;;;;;;;;;28.25;22.40;101067.97;5078546;28;769;-37
2022/02/25 01:40:52;;;;;;;;;;;;;;;27.67;22.69;101058.41;5077340;28;856;-37
2022/02/25 01:43:17;;;;;;;;;;;;;;;27.36;23.46;101056.59;5077667;28;801;-36
2022/02/25 01:45:42;;;;;;;;;;;;;;;27.51;23.20;101048.53;5074345;28;1902;-35
2022/02/25 01:48:08;;;;;;;;;;;;;;;27.60;23.48;101052.03;5075965;28;1309;-36
2022/02/25 01:50:35;;;;;;;;;;;;;;;28.14;22.40;101050.31;5077628;28;833;-36
2022/02/25 01:53:01;;;;;;;;;;;;;;;28.42;22.27;101054.31;5076534;28;782;-36
2022/02/25 01:55:27;;;;;;;;;;;;;;;28.54;22.13;101044.72;5077297;28;849;-37
2022/02/25 01:57:52;;;;;;;;;;;;;;;28.53;21.97;101055.75;5077847;28;904;-37
2022/02/25 02:00:18;;;;;;;;;;;;;;;27.69;23.03;101042.06;5075601;28;883;-36
2022/02/25 02:02:43;;;;;;;;;;;;;;;27.56;23.39;101045.31;5074049;28;833;-35
2022/02/25 02:05:08;;;;;;;;;;;;;;;27.85;23.06;101049.19;5075316;28;1955;-35
2022/02/25 02:07:34;;;;;;;;;;;;;;;28.09;22.37;101041.91;5073885;28;806;-35
2022/02/25 02:09:59;;;;;;;;;;;;;;;28.23;22.37;101043.81;5077335;28;891;-36
2022/02/25 02:12:24;;;;;;;;;;;;;;;28.28;22.39;101043.25;5077434;28;1471;-37
2022/02/25 02:14:49;;;;;;;;;;;;;;;27.96;22.52;101035.25;5077848;28;961;-36
2022/02/25 02:17:15;;;;;;;;;;;;;;;26.85;22.90;100917.41;5074550;28;969;-37
2022/02/25 02:19:40;;;;;;;;;;;;;;;27.53;22.98;101040.28;5076903;28;932;-37
2022/02/25 02:22:05;;;;;;;;;;;;;;;28.07;22.83;101036.69;5077488;28;805;-37
2022/02/25 02:24:31;;;;;;;;;;;;;;;28.38;22.24;101040.31;5075910;28;1971;-36
2022/02/25 02:26:56;;;;;;;;;;;;;;;28.58;22.04;101034.34;5077450;28;774;-37
2022/02/25 02:29:22;;;;;;;;;;;;;;;28.32;22.22;101028.34;5077195;28;881;-35
2022/02/25 02:31:47;;;;;;;;;;;;;;;27.75;22.66;101025.97;5075090;28;1252;-37
2022/02/25 02:34:13;;;;;;;;;;;;;;;27.51;23.05;101025.06;5076820;28;750;-37
2022/02/25 02:36:39;;;;;;;;;;;;;;;27.56;23.02;101021.00;5075843;28;782;-35
2022/02/25 02:39:05;;;;;;;;;;;;;;;27.96;22.98;101016.31;5076870;28;812;-37
2022/02/25 02:41:30;;;;;;;;;;;;;;;28.27;22.35;101024.50;5076573;28;821;-37
2022/02/25 02:43:56;;;;;;;;;;;;;;;28.42;22.33;101030.81;5074806;28;810;-37
2022/02/25 02:46:21;;;;;;;;;;;;;;;28.51;22.16;101014.47;5070348;28;1906;-35
2022/02/25 02:48:46;;;;;;;;;;;;;;;27.69;23.05;101020.44;5076676;28;872;-37
2022/02/25 02:51:12;;;;;;;;;;;;;;;27.50;22.74;101015.28;5077089;28;837;-36
2022/02/25 02:53:38;;;;;;;;;;;;;;;27.42;23.06;101012.66;5076431;28;831;-37
2022/02/25 02:56:04;;;;;;;;;;;;;;;28.33;22.17;101019.22;5076003;28;1409;-37
2022/02/25 02:58:29;;;;;;;;;;;;;;;28.36;22.43;101015.31;5076631;28;778;-37
2022/02/25 03:00:54;;;;;;;;;;;;;;;28.11;22.36;101013.66;5072298;28;827;-36
2022/02/25 03:03:19;;;;;;;;;;;;;;;28.43;22.24;101010.81;5076189;28;749;-36
2022/02/25 03:05:46;;;;;;;;;;;;;;;27.79;22.92;101018.34;5075947;28;1957;-37
2022/02/25 03:08:11;;;;;;;;;;;;;;;27.53;22.93;101013.25;5076579;28;881;-37
2022/02/25 03:10:37;;;;;;;;;;;;;;;27.57;23.01;101015.41;5075633;28;1136;-36
2022/02/25 03:13:02;;;;;;;;;;;;;;;28.12;22.48;101019.91;5076180;28;845;-37
2022/02/25 03:15:28;;;;;;;;;;;;;;;28.14;22.26;101019.72;5075772;28;892;-37
2022/02/25 03:17:53;;;;;;;;;;;;;;;28.48;21.87;101023.78;5076063;28;745;-37
2022/02/25 03:20:18;;;;;;;;;;;;;;;27.84;22.51;101023.19;5076351;28;805;-37
2022/02/25 03:22:44;;;;;;;;;;;;;;;27.45;23.28;101012.28;5071439;28;943;-37
2022/02/25 03:25:09;;;;;;;;;;;;;;;27.47;23.10;101004.84;5075892;28;1894;-37
2022/02/25 03:27:34;;;;;;;;;;;;;;;27.55;23.14;100997.69;5076095;28;868;-37
2022/02/25 03:30:00;;;;;;;;;;;;;;;28.06;22.39;101002.53;5090783;28;765;-36
2022/02/25 03:32:25;;;;;;;;;;;;;;;28.40;22.19;101003.09;5069953;28;1077;-37
2022/02/25 03:34:50;;;;;;;;;;;;;;;28.27;22.14;101002.84;5075740;28;880;-37
2022/02/25 03:37:16;;;;;;;;;;;;;;;28.09;22.41;100994.06;5076018;28;853;-37
2022/02/25 03:39:41;;;;;;;;;;;;;;;27.83;22.51;100994.47;5075741;28;829;-36
2022/02/25 03:42:06;;;;;;;;;;;;;;;27.50;23.00;100990.97;5076444;28;718;-37
2022/02/25 03:44:32;;;;;;;;;;;;;;;27.93;22.57;100992.34;5075560;28;1905;-37
2022/02/25 03:46:57;;;;;;;;;;;;;;;27.67;22.10;100868.41;5073523;28;1072;-37
2022/02/25 03:49:22;;;;;;;;;;;;;;;28.56;22.09;100985.81;5076212;28;808;-37
2022/02/25 03:51:48;;;;;;;;;;;;;;;27.93;22.43;100983.38;5075897;28;734;-37
2022/02/25 03:54:14;;;;;;;;;;;;;;;27.59;22.95;100980.94;5075207;28;872;-37
2022/02/25 03:56:39;;;;;;;;;;;;;;;27.49;23.13;100986.56;5075700;28;822;-37
2022/02/25 03:59:05;;;;;;;;;;;;;;;27.63;23.28;100979.56;5075801;28;817;-36
2022/02/25 04:01:30;;;;;;;;;;;;;;;28.41;22.51;100974.19;5073885;28;1034;-37
2022/02/25 04:03:56;;;;;;;;;;;;;;;28.07;22.39;100965.53;5076075;28;797;-37
2022/02/25 04:06:21;;;;;;;;;;;;;;;28.55;22.05;100969.78;5075733;28;1902;-37
2022/02/25 04:08:46;;;;;;;;;;;;;;;28.33;22.48;100966.97;5074175;28;1007;-37
2022/02/25 04:11:11;;;;;;;;;;;;;;;27.78;22.74;100969.88;5075487;28;874;-37
2022/02/25 04:13:37;;;;;;;;;;;;;;;27.77;22.76;100973.56;5075455;28;801;-37
2022/02/25 04:16:03;;;;;;;;;;;;;;;28.15;22.23;100970.84;5074745;28;920;-37
2022/02/25 04:18:28;;;;;;;;;;;;;;;28.29;22.38;100971.06;5075699;28;734;-37
2022/02/25 04:20:53;;;;;;;;;;;;;;;27.71;22.12;100975.16;5076052;28;837;-38
2022/02/25 04:23:18;;;;;;;;;;;;;;;27.20;22.31;100992.69;5075163;28;751;-37
2022/02/25 04:25:44;;;;;;;;;;;;;;;27.08;22.68;100993.09;5075120;28;1901;-37
2022/02/25 04:28:09;;;;;;;;;;;;;;;27.05;22.55;100998.00;5075225;28;941;-37
2022/02/25 04:30:34;;;;;;;;;;;;;;;27.62;22.33;101002.22;5075070;28;1186;-37
2022/02/25 04:33:00;;;;;;;;;;;;;;;26.56;17.81;101003.38;5076598;28;1460;-42
2022/02/25 04:35:25;;;;;;;;;;;;;;;25.48;18.39;100996.16;5081361;28;849;-39
2022/02/25 04:37:51;;;;;;;;;;;;;;;24.11;18.35;101000.34;5074167;28;819;-40
2022/02/25 04:40:17;;;;;;;;;;;;;;;23.39;19.12;101001.19;5073017;28;900;-40
2022/02/25 04:42:42;;;;;;;;;;;;;;;23.34;19.62;100994.44;5078686;28;789;-39
2022/02/25 04:45:08;;;;;;;;;;;;;;;23.85;19.20;101002.00;5078895;28;1901;-39
2022/02/25 04:47:33;;;;;;;;;;;;;;;24.37;19.54;101007.63;5078353;28;1151;-37
2022/02/25 04:49:58;;;;;;;;;;;;;;;24.71;19.48;101008.63;5083206;28;1368;-39
2022/02/25 04:52:24;;;;;;;;;;;;;;;24.09;18.16;101013.09;5074621;28;885;-41
2022/02/25 04:54:49;;;;;;;;;;;;;;;23.64;18.59;101018.41;5078794;28;715;-40
2022/02/25 04:57:14;;;;;;;;;;;;;;;23.33;18.39;101019.59;5078539;28;865;-40
2022/02/25 04:59:40;;;;;;;;;;;;;;;22.64;19.15;101025.25;5080164;28;1360;-39
2022/02/25 05:02:06;;;;;;;;;;;;;;;22.72;19.00;101030.72;5084807;28;826;-40
2022/02/25 05:04:32;;;;;;;;;;;;;;;23.33;19.13;101038.38;5078508;28;1947;-35
2022/02/25 05:06:57;;;;;;;;;;;;;;;23.58;19.45;101043.19;5078518;28;895;-36
2022/02/25 05:09:22;;;;;;;;;;;;;;;23.96;19.45;101046.59;5078142;28;857;-36
2022/02/25 05:11:48;;;;;;;;;;;;;;;24.01;19.39;101059.56;5078213;28;871;-37
2022/02/25 05:22:25;;;;;;;;;;;;;;;24.92;19.04;101072.84;5071401;28;591;-35
2022/02/25 05:24:50;;;;;;;;;;;;;;;25.37;18.87;101077.25;5077808;28;1901;-36
2022/02/25 05:27:16;;;;;;;;;;;;;;;25.36;18.56;101075.59;5078177;28;866;-36
2022/02/25 05:29:42;;;;;;;;;;;;;;;25.45;18.69;101074.59;5077674;28;893;-36
2022/02/25 05:32:07;;;;;;;;;;;;;;;25.52;18.64;101072.94;5073897;28;1167;-35
2022/02/25 05:34:32;;;;;;;;;;;;;;;25.53;18.48;101073.75;5077769;28;1162;-36
2022/02/25 05:36:58;;;;;;;;;;;;;;;25.56;17.89;101063.50;5068497;28;1041;-37
2022/02/25 05:39:23;;;;;;;;;;;;;;;25.00;18.45;101076.59;5078616;28;821;-35
2022/02/25 05:41:48;;;;;;;;;;;;;;;25.40;18.63;101066.16;5073831;28;1078;-36
2022/02/25 05:44:14;;;;;;;;;;;;;;;25.67;18.45;101064.22;5077949;28;869;-36
2022/02/25 05:46:39;;;;;;;;;;;;;;;25.53;18.49;101061.13;5076393;28;1910;-35
2022/02/25 05:49:04;;;;;;;;;;;;;;;25.46;18.43;101059.28;5071469;28;1159;-36
2022/02/25 05:51:30;;;;;;;;;;;;;;;25.71;18.10;101059.38;5076114;28;1217;-36
2022/02/25 05:53:55;;;;;;;;;;;;;;;25.88;17.64;101061.06;5078044;28;836;-36
2022/02/25 05:56:21;;;;;;;;;;;;;;;26.04;17.67;101070.19;5077446;28;835;-36
2022/02/25 05:58:47;;;;;;;;;;;;;;;26.28;17.59;101063.94;5092746;28;998;-36
2022/02/25 06:01:12;;;;;;;;;;;;;;;25.69;18.17;101062.22;5077267;28;894;-36
2022/02/25 06:03:37;;;;;;;;;;;;;;;25.73;17.96;101065.41;5077463;28;880;-36
2022/02/25 06:06:03;;;;;;;;;;;;;;;25.95;17.79;101061.25;5077395;28;1893;-36
2022/02/25 06:08:28;;;;;;;;;;;;;;;26.17;17.40;101064.28;5076902;28;1008;-36
2022/02/25 06:10:53;;;;;;;;;;;;;;;26.15;17.31;101066.28;5077185;28;793;-36
2022/02/25 06:13:18;;;;;;;;;;;;;;;26.05;17.63;101063.75;5077306;28;833;-36
2022/02/25 06:15:45;;;;;;;;;;;;;;;26.25;17.63;101074.22;5063695;28;879;-37
2022/02/25 06:18:11;;;;;;;;;;;;;;;26.23;17.53;101062.75;5077403;28;885;-37
2022/02/25 06:20:36;;;;;;;;;;;;;;;25.95;17.39;101071.16;5077016;28;876;-36
2022/02/25 06:23:03;;;;;;;;;;;;;;;25.18;17.86;101074.66;5077095;28;849;-36
2022/02/25 06:25:29;;;;;;;;;;;;;;;24.79;18.26;101070.56;5077442;28;1897;-37
2022/02/25 06:27:54;;;;;;;;;;;;;;;25.52;17.82;101070.25;5076743;28;1448;-36
2022/02/25 06:30:19;;;;;;;;;;;;;;;25.60;17.83;101066.72;5076055;28;888;-36
2022/02/25 06:32:45;;;;;;;;;;;;;;;25.85;17.77;101071.31;5071654;28;1216;-36
2022/02/25 06:35:10;;;;;;;;;;;;;;;25.65;17.81;101068.94;5074699;28;817;-37
2022/02/25 06:37:35;;;;;;;;;;;;;;;25.73;17.55;101051.94;5076603;28;817;-36
2022/02/25 06:40:01;;;;;;;;;;;;;;;25.52;17.66;101053.22;5077326;28;833;-36
2022/02/25 06:42:26;;;;;;;;;;;;;;;25.58;18.02;101049.00;5069107;28;1273;-37
2022/02/25 06:44:52;;;;;;;;;;;;;;;25.84;18.59;101057.00;5072813;28;1913;-38
2022/02/25 06:47:20;;;;;;;;;;;;;;;25.82;19.13;101053.66;5076240;28;1068;-38
2022/02/25 06:49:45;;;;;;;;;;;;;;;25.69;19.71;101064.91;5075907;28;1229;-39
2022/02/25 06:52:10;;;;;;;;;;;;;;;25.74;20.04;101065.25;5075396;28;1455;-38
2022/02/25 06:54:36;;;;;;;;;;;;;;;25.82;20.19;101069.81;5076666;28;1439;-38
2022/02/25 06:57:01;;;;;;;;;;;;;;;26.17;21.02;101059.69;5073543;28;1372;-37
2022/02/25 06:59:27;;;;;;;;;;;;;;;26.33;20.86;101055.34;5071129;28;809;-37
2022/02/25 07:01:52;;;;;;;;;;;;;;;25.87;21.41;101045.91;5070148;28;1289;-38
2022/02/25 07:04:17;;;;;;;;;;;;;;;25.58;21.90;101052.56;5075592;28;1282;-37
2022/02/25 07:06:43;;;;;;;;;;;;;;;26.14;21.78;101059.22;5074689;28;1955;-37
2022/02/25 07:09:08;;;;;;;;;;;;;;;26.17;21.55;101050.78;5075176;28;801;-38
2022/02/25 07:11:33;;;;;;;;;;;;;;;25.96;21.87;101052.13;5072574;28;1326;-38
2022/02/25 07:13:59;;;;;;;;;;;;;;;26.17;22.44;101059.69;5074450;28;1068;-40
2022/02/25 07:16:24;;;;;;;;;;;;;;;25.93;23.20;101057.84;5069990;28;1409;-38
2022/02/25 07:18:49;;;;;;;;;;;;;;;25.92;22.66;101056.19;5075271;28;1396;-37
2022/02/25 07:21:14;;;;;;;;;;;;;;;25.69;23.21;101056.84;5075194;28;1193;-37
2022/02/25 07:23:40;;;;;;;;;;;;;;;25.60;23.54;101061.31;5071887;28;1237;-38
2022/02/25 07:26:07;;;;;;;;;;;;;;;25.92;23.45;101053.50;5073590;28;1901;-35
2022/02/25 07:28:32;;;;;;;;;;;;;;;26.07;23.34;101052.81;5075027;28;1260;-37
2022/02/25 07:30:57;;;;;;;;;;;;;;;26.23;23.55;101050.09;5072714;28;827;-38
2022/02/25 07:33:23;;;;;;;;;;;;;;;26.27;23.24;101047.91;5073743;28;1237;-38
2022/02/25 07:35:48;;;;;;;;;;;;;;;26.21;23.66;101046.72;5077757;28;1310;-38
2022/02/25 07:38:13;;;;;;;;;;;;;;;26.01;23.89;101044.38;5075058;28;1357;-39
2022/02/25 07:40:39;;;;;;;;;;;;;;;26.21;24.13;101044.03;5075750;28;1447;-39
2022/02/25 07:43:04;;;;;;;;;;;;;;;26.38;23.97;101047.59;5075368;28;1262;-40
2022/02/25 07:45:29;;;;;;;;;;;;;;;26.23;24.19;101058.19;5077582;28;1898;-40
2022/02/25 07:47:55;;;;;;;;;;;;;;;27.00;23.39;101050.63;5074485;28;1236;-40
2022/02/25 07:50:20;;;;;;;;;;;;;;;26.57;22.58;101048.25;5069333;28;881;-39
2022/02/25 07:52:45;;;;;;;;;;;;;;;26.43;22.84;101047.06;5074940;28;1226;-38
2022/02/25 07:55:12;;;;;;;;;;;;;;;26.13;22.39;101061.06;5072530;28;1528;-40
2022/02/25 07:57:37;;;;;;;;;;;;;;;26.17;21.08;101048.91;5072155;28;1226;-40
2022/02/25 08:00:04;;;;;;;;;;;;;;;26.02;20.38;101050.63;5072585;28;1471;-39
2022/02/25 08:02:29;;;;;;;;;;;;;;;26.07;20.62;101052.81;5069043;28;1210;-38
2022/02/25 08:04:54;;;;;;;;;;;;;;;25.63;21.23;101044.00;5067038;28;1951;-39
2022/02/25 08:07:20;;;;;;;;;;;;;;;25.56;21.76;101049.19;5069741;28;1068;-39
2022/02/25 08:09:45;;;;;;;;;;;;;;;25.63;20.12;101052.94;5075679;28;1270;-39
2022/02/25 08:12:10;;;;;;;;;;;;;;;25.77;20.03;101039.81;5073512;28;1179;-37
2022/02/25 08:14:38;;;;;;;;;;;;;;;25.65;20.05;101048.25;5066910;28;1167;-40
2022/02/25 08:17:06;;;;;;;;;;;;;;;25.31;19.79;101049.97;5072794;28;811;-40
2022/02/25 08:19:31;;;;;;;;;;;;;;;25.25;20.13;101049.78;5073854;28;1163;-40
2022/02/25 08:21:57;;;;;;;;;;;;;;;25.28;20.66;101046.75;5078877;28;1267;-40
2022/02/25 08:24:22;;;;;;;;;;;;;;;25.34;21.31;101043.41;5079159;28;1016;-39
2022/02/25 08:26:47;;;;;;;;;;;;;;;25.34;21.67;101039.88;5079582;28;1914;-40
2022/02/25 08:29:13;;;;;;;;;;;;;;;25.37;22.03;101039.56;5075248;28;1080;-39
2022/02/25 08:31:38;;;;;;;;;;;;;;;25.39;22.15;101037.53;5075845;28;1360;-39
2022/02/25 08:34:03;;;;;;;;;;;;;;;25.43;21.97;101038.88;5078452;28;1424;-39
2022/02/25 08:36:29;;;;;;;;;;;;;;;25.70;21.76;101044.19;5078699;28;1404;-39
2022/02/25 08:38:54;;;;;;;;;;;;;;;25.74;21.80;101032.09;5076881;28;1480;-40
2022/02/25 08:41:19;;;;;;;;;;;;;;;26.40;21.08;101036.63;5070603;28;1261;-40
2022/02/25 08:43:47;;;;;;;;;;;;;;;26.46;21.28;101044.03;5077574;28;1280;-40
2022/02/25 08:46:12;;;;;;;;;;;;;;;26.60;21.67;101045.19;5078421;28;1909;-37
2022/02/25 08:48:38;;;;;;;;;;;;;;;26.85;21.53;101038.88;5074814;28;1224;-36
2022/02/25 08:51:04;;;;;;;;;;;;;;;26.26;22.21;101047.06;5073531;28;1527;-37
2022/02/25 08:53:29;;;;;;;;;;;;;;;26.24;22.60;101045.56;5076683;28;1350;-35
2022/02/25 08:55:54;;;;;;;;;;;;;;;26.14;22.90;101049.25;5077004;28;1523;-36
2022/02/25 08:58:20;;;;;;;;;;;;;;;26.15;22.82;101045.56;5078451;28;833;-36
2022/02/25 09:00:46;;;;;;;;;;;;;;;25.96;23.19;101043.22;5087794;28;1249;-36
2022/02/25 09:03:11;;;;;;;;;;;;;;;26.05;22.83;101039.50;5078538;28;1226;-36
2022/02/25 09:05:36;;;;;;;;;;;;;;;26.19;22.78;101039.84;5075069;28;1951;-36
2022/02/25 09:08:02;;;;;;;;;;;;;;;26.20;22.93;101028.03;5073083;28;1423;-36
2022/02/25 09:10:27;;;;;;;;;;;;;;;26.09;23.31;101026.53;5077542;28;1530;-37
2022/02/25 09:12:52;;;;;;;;;;;;;;;26.24;22.96;101030.22;5071671;28;1440;-37
2022/02/25 09:15:22;;;;;;;;;;;;;;;26.31;22.69;101018.75;5077344;28;1396;-36
2022/02/25 09:17:48;;;;;;;;;;;;;;;26.48;22.17;101017.75;5076638;28;1288;-36
2022/02/25 09:20:13;;;;;;;;;;;;;;;26.19;22.17;101015.56;5077369;28;839;-36
2022/02/25 09:22:39;;;;;;;;;;;;;;;26.55;21.75;101012.50;5077943;28;1542;-36
2022/02/25 09:25:05;;;;;;;;;;;;;;;26.34;21.83;101004.97;5077628;28;1902;-35
2022/02/25 09:27:32;;;;;;;;;;;;;;;26.13;21.80;101000.91;5077485;28;789;-36
2022/02/25 09:29:57;;;;;;;;;;;;;;;26.03;21.90;100993.00;5077549;28;1448;-35
2022/02/25 09:32:23;;;;;;;;;;;;;;;26.00;21.64;100987.94;5071620;28;1310;-35
2022/02/25 09:34:48;;;;;;;;;;;;;;;26.00;21.59;100986.09;5077653;28;1487;-34
2022/02/25 09:37:13;;;;;;;;;;;;;;;25.97;21.88;100982.91;5077808;28;1336;-34
2022/02/25 09:39:39;;;;;;;;;;;;;;;26.09;21.99;100980.69;5078072;28;817;-36
2022/02/25 09:42:05;;;;;;;;;;;;;;;26.12;22.22;100977.66;5076205;28;1525;-35
2022/02/25 09:44:30;;;;;;;;;;;;;;;26.16;22.00;100974.44;5077495;28;784;-34
2022/02/25 09:46:56;;;;;;;;;;;;;;;26.33;22.21;100979.84;5072139;28;1966;-37
2022/02/25 09:49:21;;;;;;;;;;;;;;;26.25;22.29;100971.75;5076771;28;1467;-35
2022/02/25 09:51:47;;;;;;;;;;;;;;;26.35;22.71;100968.88;5074295;28;1617;-36
2022/02/25 09:54:16;;;;;;;;;;;;;;;26.62;22.24;100961.38;5074826;28;1206;-35
2022/02/25 09:56:42;;;;;;;;;;;;;;;26.74;22.00;100948.34;5070600;28;1544;-35
2022/02/25 09:59:07;;;;;;;;;;;;;;;26.34;21.40;100942.94;5066813;28;1370;-35
2022/02/25 10:01:33;;;;;;;;;;;;;;;26.50;21.60;100942.03;5067597;28;1344;-36
2022/02/25 10:03:58;;;;;;;;;;;;;;;26.60;21.65;100939.97;5077463;28;857;-36
2022/02/25 10:06:28;;;;;;;;;;;;;;;26.61;21.69;100938.13;5069080;28;1910;-36
2022/02/25 10:08:55;;;;;;;;;;;;;;;26.61;21.59;100927.34;5069940;28;1249;-37
2022/02/25 10:11:21;;;;;;;;;;;;;;;26.65;21.61;100937.59;5071193;28;838;-36
2022/02/25 10:13:46;;;;;;;;;;;;;;;26.67;21.41;100937.41;5077021;28;845;-35
2022/02/25 10:16:12;;;;;;;;;;;;;;;26.72;21.42;100943.13;5076765;28;875;-35
2022/02/25 10:18:37;;;;;;;;;;;;;;;26.74;21.46;100934.84;5075623;28;992;-35
2022/02/25 10:21:07;;;;;;;;;;;;;;;26.72;21.53;100939.59;5077279;28;776;-37
2022/02/25 10:23:39;;;;;;;;;;;;;;;26.72;21.21;100921.53;5075070;28;981;-40
2022/02/25 10:26:08;;;;;;;;;;;;;;;26.78;21.39;100919.97;5077253;28;1906;-41
2022/02/25 10:28:34;;;;;;;;;;;;;;;26.76;21.59;100922.84;5077591;28;1098;-42
2022/02/25 10:31:15;;;;;;;;;;;;;;;26.70;21.75;100911.94;5075638;28;883;-41
2022/02/25 10:33:41;;;;;;;;;;;;;;;26.60;21.97;100901.34;5071126;28;1211;-41
2022/02/25 10:36:06;;;;;;;;;;;;;;;26.60;21.90;100896.81;5076123;28;859;-43
2022/02/25 10:38:35;;;;;;;;;;;;;;;26.73;21.75;100898.06;5075972;28;786;-41
2022/02/25 10:41:01;;;;;;;;;;;;;;;26.86;21.79;100892.13;5076320;28;869;-41
2022/02/25 10:43:26;;;;;;;;;;;;;;;26.93;21.76;100884.97;5075445;28;790;-42
2022/02/25 10:45:55;;;;;;;;;;;;;;;26.96;21.58;100897.28;5070722;28;1906;-41
2022/02/25 10:48:21;;;;;;;;;;;;;;;27.04;21.41;100894.56;5066861;28;834;-41
2022/02/25 10:50:47;;;;;;;;;;;;;;;27.18;21.58;100889.38;5070019;28;861;-41
2022/02/25 10:53:12;;;;;;;;;;;;;;;27.16;21.60;100883.34;5076300;28;762;-41
2022/02/25 10:55:37;;;;;;;;;;;;;;;27.04;21.52;100886.47;5076432;28;904;-42
2022/02/25 10:58:03;;;;;;;;;;;;;;;27.17;21.17;100877.78;5074587;28;845;-41
2022/02/25 11:00:29;;;;;;;;;;;;;;;27.21;21.42;100880.97;5073850;28;846;-41
2022/02/25 11:02:56;;;;;;;;;;;;;;;27.29;21.15;100874.63;5075940;28;1552;-41
2022/02/25 11:05:28;;;;;;;;;;;;;;;27.17;21.42;100866.97;5076240;28;1967;-42
2022/02/25 11:07:54;;;;;;;;;;;;;;;27.33;20.86;100875.94;5076570;28;775;-41
2022/02/25 11:10:20;;;;;;;;;;;;;;;27.33;20.91;100870.53;5075993;28;765;-42
2022/02/25 11:12:46;;;;;;;;;;;;;;;27.45;20.72;100870.94;5074289;28;789;-41
2022/02/25 11:15:16;;;;;;;;;;;;;;;27.24;21.40;100864.38;5074671;28;870;-41
2022/02/25 11:17:41;;;;;;;;;;;;;;;27.28;21.08;100865.69;5074429;28;699;-41
2022/02/25 11:20:08;;;;;;;;;;;;;;;27.20;21.29;100860.34;5075792;28;753;-41
2022/02/25 11:22:33;;;;;;;;;;;;;;;26.98;21.23;100858.28;5076433;28;752;-42
2022/02/25 11:24:59;;;;;;;;;;;;;;;26.93;21.47;100851.72;5075865;28;1963;-41
2022/02/25 11:27:24;;;;;;;;;;;;;;;27.10;21.43;100855.19;5075877;28;807;-41
2022/02/25 11:30:06;;;;;;;;;;;;;;;27.09;21.24;100858.94;5076141;28;1103;-41
2022/02/25 11:32:39;;;;;;;;;;;;;;;27.38;21.10;100855.47;5074436;28;1231;-43
2022/02/25 11:35:17;;;;;;;;;;;;;;;27.01;22.00;100848.97;5075612;28;878;-43
2022/02/25 11:37:43;;;;;;;;;;;;;;;26.63;22.71;100850.59;5075758;28;857;-44
2022/02/25 11:40:09;;;;;;;;;;;;;;;26.51;23.11;100849.28;5075137;28;847;-43
2022/02/25 11:42:34;;;;;;;;;;;;;;;26.63;22.83;100847.88;5074691;28;765;-43
2022/02/25 11:45:10;;;;;;;;;;;;;;;26.92;22.13;100841.97;5075550;28;1902;-41
2022/02/25 11:47:36;;;;;;;;;;;;;;;27.21;21.45;100838.56;5068433;28;1410;-41
2022/02/25 11:50:04;;;;;;;;;;;;;;;27.38;21.32;100844.69;5076026;28;892;-42
2022/02/25 11:52:29;;;;;;;;;;;;;;;27.31;21.45;100832.91;5063075;28;1125;-41
2022/02/25 11:54:55;;;;;;;;;;;;;;;27.25;21.83;100839.03;5069409;28;1367;-41
2022/02/25 11:57:22;;;;;;;;;;;;;;;27.50;21.54;100841.53;5074541;28;1046;-42
2022/02/25 11:59:47;;;;;;;;;;;;;;;27.33;21.77;100832.72;5064382;28;1095;-41
2022/02/25 12:02:20;;;;;;;;;;;;;;;27.44;21.81;100836.88;5073910;28;968;-41
2022/02/25 12:05:05;;;;;;;;;;;;;;;27.34;21.89;100835.25;5075156;28;838;-41
2022/02/25 12:07:31;;;;;;;;;;;;;;;27.96;21.48;100834.34;5064401;28;1353;-41
2022/02/25 12:09:57;;;;;;;;;;;;;;;28.43;20.66;100834.97;5075431;28;845;-42
2022/02/25 12:12:22;;;;;;;;;;;;;;;28.79;20.29;100836.00;5075700;28;1062;-41
2022/02/25 12:15:06;;;;;;;;;;;;;;;28.65;20.08;100831.44;5075402;28;841;-41
2022/02/25 12:17:44;;;;;;;;;;;;;;;28.41;20.56;100831.59;5067248;28;921;-41
2022/02/25 12:20:18;;;;;;;;;;;;;;;28.19;21.06;100831.53;5075368;28;802;-41
2022/02/25 12:22:47;;;;;;;;;;;;;;;28.15;20.92;100823.97;5074899;28;1004;-41
2022/02/25 12:25:13;;;;;;;;;;;;;;;27.91;21.03;100824.06;5068173;28;1959;-41
2022/02/25 12:27:38;;;;;;;;;;;;;;;28.01;21.06;100809.44;5075180;28;779;-42
2022/02/25 12:30:22;;;;;;;;;;;;;;;27.91;21.06;100805.13;5075021;28;826;-41
2022/02/25 12:32:48;;;;;;;;;;;;;;;27.86;21.36;100802.19;5070043;28;1262;-41
2022/02/25 12:35:14;;;;;;;;;;;;;;;27.72;21.53;100793.88;5090379;28;1620;-41
2022/02/25 12:37:39;;;;;;;;;;;;;;;27.86;21.22;100797.59;5074288;28;856;-42
2022/02/25 12:40:05;;;;;;;;;;;;;;;27.73;21.24;100794.69;5073887;28;826;-42
2022/02/25 12:42:30;;;;;;;;;;;;;;;27.81;21.25;100791.91;5068591;28;1065;-41
2022/02/25 12:44:55;;;;;;;;;;;;;;;28.01;21.19;100795.91;5075643;28;1905;-41
2022/02/25 12:47:20;;;;;;;;;;;;;;;27.93;20.94;100797.69;5074519;28;889;-41
2022/02/25 12:49:46;;;;;;;;;;;;;;;28.05;21.04;100792.66;5075067;28;842;-42
2022/02/25 12:52:12;;;;;;;;;;;;;;;28.21;20.72;100790.78;5075179;28;1525;-41
2022/02/25 12:54:38;;;;;;;;;;;;;;;28.32;20.52;100786.72;5073070;28;806;-42